Time;durP1;ratioP1;P1;durP2;ratioP2;P2;SDS_P1;SDS_P2;PMS_P1;PMS_P2;Temp;Humidity;BMP_temperature;BMP_pressure;BME280_temperature;BME280_humidity;BME280_pressure;Samples;Min_cycle;Max_cycle;Signal;HPM_P1;HPM_P2
2022/09/20 00:02:14;;;;;;;14.48;8.98;;;10.10;86.60;;;;;;4904254;29;20107;-90
2022/09/20 00:04:40;;;;;;;15.38;9.43;;;10.10;86.70;;;;;;4889942;29;20123;-91
2022/09/20 00:07:06;;;;;;;16.80;10.52;;;10.10;86.80;;;;;;4919070;29;20032;-90
2022/09/20 00:09:40;;;;;;;15.30;10.15;;;10.10;86.80;;;;;;4904000;29;20110;-90
2022/09/20 00:12:16;;;;;;;14.80;9.52;;;10.10;86.70;;;;;;4914438;29;20037;-90
2022/09/20 00:14:42;;;;;;;14.77;8.77;;;10.10;86.70;;;;;;4907335;29;20115;-90
2022/09/20 00:17:15;;;;;;;16.85;8.82;;;10.00;86.80;;;;;;4917201;29;20517;-90
2022/09/20 00:19:41;;;;;;;16.13;9.10;;;10.00;86.80;;;;;;4892797;29;20039;-90
2022/09/20 00:22:19;;;;;;;15.70;9.15;;;10.00;86.90;;;;;;4904714;29;20040;-90
2022/09/20 00:24:47;;;;;;;15.02;9.13;;;10.00;87.00;;;;;;4907050;29;20040;-90
2022/09/20 00:27:53;;;;;;;19.33;10.82;;;9.90;86.80;;;;;;4912062;29;20428;-90
2022/09/20 00:30:29;;;;;;;18.00;11.23;;;9.80;86.80;;;;;;4900923;29;20111;-90
2022/09/20 00:32:59;;;;;;;13.90;9.82;;;9.80;86.90;;;;;;4893620;29;20126;-90
2022/09/20 00:35:25;;;;;;;17.27;11.52;;;9.80;87.00;;;;;;4899383;29;20044;-90
2022/09/20 00:38:04;;;;;;;18.77;11.50;;;9.70;87.10;;;;;;4917279;29;20044;-90
2022/09/20 00:40:35;;;;;;;15.48;10.35;;;9.80;87.10;;;;;;4913531;29;20559;-90
2022/09/20 00:43:04;;;;;;;18.52;12.23;;;9.70;87.00;;;;;;4917851;29;20665;-89
2022/09/20 00:45:33;;;;;;;18.80;10.27;;;9.70;87.00;;;;;;4908089;29;20064;-89
2022/09/20 00:48:22;;;;;;;16.63;10.85;;;9.60;87.10;;;;;;4903686;29;20502;-88
2022/09/20 00:51:05;;;;;;;14.63;9.55;;;9.60;87.00;;;;;;4916683;29;20045;-90
2022/09/20 00:53:41;;;;;;;14.55;9.27;;;9.60;87.10;;;;;;4911799;29;20095;-90
2022/09/20 00:56:12;;;;;;;14.88;9.45;;;9.60;87.10;;;;;;4898793;29;20049;-90
2022/09/20 00:59:10;;;;;;;14.18;9.50;;;9.60;87.20;;;;;;4901478;29;20047;-90
2022/09/20 01:01:39;;;;;;;13.68;9.27;;;9.60;87.40;;;;;;4907679;29;20139;-89
2022/09/20 01:04:20;;;;;;;16.77;9.30;;;9.50;87.40;;;;;;4893593;29;20123;-90
2022/09/20 01:06:56;;;;;;;14.63;9.30;;;9.50;87.40;;;;;;4890060;29;20139;-90
2022/09/20 01:09:22;;;;;;;16.35;9.73;;;9.50;87.40;;;;;;4890586;28;20458;-90
2022/09/20 01:11:56;;;;;;;13.02;8.70;;;9.50;87.50;;;;;;4912167;29;20158;-90
2022/09/20 01:14:25;;;;;;;13.30;9.00;;;9.40;87.50;;;;;;4887361;29;20056;-90
2022/09/20 01:16:55;;;;;;;14.30;9.30;;;9.40;87.50;;;;;;4919196;29;20284;-90
2022/09/20 01:19:42;;;;;;;11.32;8.02;;;9.40;87.50;;;;;;4900466;29;20032;-91
2022/09/20 01:22:37;;;;;;;14.02;8.90;;;9.40;87.60;;;;;;4917701;29;20048;-89
2022/09/20 01:25:15;;;;;;;14.35;9.15;;;9.30;87.60;;;;;;4919006;28;20066;-90
2022/09/20 01:27:41;;;;;;;12.07;7.75;;;9.30;87.50;;;;;;4926250;29;20487;-90
2022/09/20 01:30:19;;;;;;;14.38;8.75;;;9.20;87.50;;;;;;4912099;29;20067;-90
2022/09/20 01:33:11;;;;;;;11.55;8.00;;;9.20;87.50;;;;;;4917532;29;20040;-90
2022/09/20 01:35:46;;;;;;;12.10;8.40;;;9.10;87.20;;;;;;4922506;29;20040;-90
2022/09/20 01:38:44;;;;;;;14.25;9.05;;;9.10;87.30;;;;;;4899142;29;20119;-91
2022/09/20 01:41:35;;;;;;;11.45;8.15;;;9.10;87.30;;;;;;4882819;29;20080;-90
2022/09/20 01:44:31;;;;;;;14.65;8.45;;;9.10;87.60;;;;;;4922801;29;20035;-90
2022/09/20 01:47:08;;;;;;;12.52;7.68;;;9.10;87.60;;;;;;4905092;29;20504;-90
2022/09/20 01:50:11;;;;;;;14.70;8.70;;;9.10;87.50;;;;;;4923086;28;20516;-90
2022/09/20 01:53:00;;;;;;;12.82;8.23;;;9.00;87.60;;;;;;4914805;29;20044;-89
2022/09/20 01:55:51;;;;;;;13.88;8.90;;;9.00;87.50;;;;;;4898462;29;20055;-89
2022/09/20 01:58:33;;;;;;;14.43;8.35;;;9.00;87.60;;;;;;4887461;29;20668;-90
2022/09/20 02:01:18;;;;;;;13.30;8.38;;;8.90;87.70;;;;;;4923215;29;20038;-89
2022/09/20 02:03:46;;;;;;;13.90;8.77;;;8.90;87.80;;;;;;4899333;29;20510;-89
2022/09/20 02:07:05;;;;;;;11.43;8.80;;;8.90;88.00;;;;;;4899951;29;20028;-89
2022/09/20 02:09:51;;;;;;;16.85;8.93;;;8.90;88.00;;;;;;4840204;29;20049;-89
2022/09/20 02:13:01;;;;;;;14.02;8.32;;;8.90;88.10;;;;;;4900260;28;20130;-90
2022/09/20 02:15:52;;;;;;;18.50;9.40;;;8.90;88.30;;;;;;4841912;29;20552;-90
2022/09/20 02:18:33;;;;;;;12.73;8.13;;;8.90;88.30;;;;;;4913067;29;20578;-89
2022/09/20 02:21:43;;;;;;;11.85;7.90;;;8.90;88.20;;;;;;4903970;29;20036;-89
2022/09/20 02:24:39;;;;;;;12.50;7.95;;;8.90;88.10;;;;;;4921534;28;20059;-89
2022/09/20 02:27:20;;;;;;;;;;;8.80;88.20;;;;;;4907946;29;20096;-89
2022/09/20 02:30:11;;;;;;;12.90;8.25;;;8.90;88.40;;;;;;4909994;28;19930;-88
2022/09/20 02:32:49;;;;;;;13.82;8.82;;;9.00;88.40;;;;;;4920795;29;20060;-89
2022/09/20 02:35:31;;;;;;;16.92;8.80;;;9.00;88.60;;;;;;4890005;29;20036;-88
2022/09/20 02:38:09;;;;;;;16.23;9.60;;;9.10;88.50;;;;;;4923452;29;20041;-89
2022/09/20 02:41:22;;;;;;;19.10;9.73;;;9.10;88.60;;;;;;4900442;28;20071;-89
2022/09/20 02:43:52;;;;;;;17.17;10.23;;;9.10;88.60;;;;;;4892939;29;20050;-89
2022/09/20 02:46:40;;;;;;;12.50;8.98;;;9.20;88.70;;;;;;4906723;29;20040;-89
2022/09/20 02:49:28;;;;;;;12.65;8.95;;;9.30;88.80;;;;;;4902499;29;20124;-88
2022/09/20 02:52:01;;;;;;;12.30;9.00;;;9.40;88.80;;;;;;4909582;29;20051;-90
2022/09/20 02:55:01;;;;;;;;;;;;;;;;;;;;;
2022/09/20 02:57:36;;;;;;;14.35;8.63;;;9.50;88.60;;;;;;4890806;29;20531;-89
2022/09/20 03:00:24;;;;;;;14.02;8.25;;;9.50;88.60;;;;;;4904524;29;20617;-89
2022/09/20 03:03:38;;;;;;;12.65;8.68;;;9.60;88.70;;;;;;4901435;29;20051;-89
2022/09/20 03:06:07;;;;;;;12.35;8.10;;;9.60;88.70;;;;;;4914659;29;20131;-90
2022/09/20 03:08:57;;;;;;;13.45;8.68;;;9.60;88.40;;;;;;4889115;29;20052;-90
2022/09/20 03:11:44;;;;;;;;;;;;;;;;;;;;;
2022/09/20 03:14:33;;;;;;;13.48;9.07;;;9.70;88.30;;;;;;4903913;28;20048;-91
2022/09/20 03:17:15;;;;;;;12.82;8.55;;;9.80;88.40;;;;;;4906457;29;20051;-91
2022/09/20 03:20:06;;;;;;;12.40;8.27;;;9.80;88.40;;;;;;4906699;28;20040;-90
2022/09/20 03:22:58;;;;;;;16.00;9.27;;;9.80;88.40;;;;;;4913842;29;20036;-90
2022/09/20 03:25:45;;;;;;;16.27;8.98;;;9.90;88.40;;;;;;4894295;29;20074;-90
2022/09/20 03:28:45;;;;;;;16.33;10.73;;;9.90;88.40;;;;;;4914696;29;20040;-89
2022/09/20 03:31:58;;;;;;;17.08;10.10;;;9.90;88.30;;;;;;4913653;29;20037;-89
2022/09/20 03:34:43;;;;;;;16.33;9.68;;;9.90;88.30;;;;;;4837959;29;20132;-89
2022/09/20 03:37:27;;;;;;;12.10;9.18;;;9.90;88.40;;;;;;4858853;29;20046;-89
2022/09/20 03:40:15;;;;;;;14.30;9.57;;;9.90;88.40;;;;;;4881751;29;20100;-89
2022/09/20 03:42:54;;;;;;;15.75;9.45;;;9.90;88.40;;;;;;4928475;29;20088;-89
2022/09/20 03:45:53;;;;;;;13.52;9.55;;;9.90;88.40;;;;;;4926795;29;20719;-88
2022/09/20 03:48:40;;;;;;;14.35;9.15;;;9.90;88.50;;;;;;4906169;29;20052;-87
2022/09/20 03:51:28;;;;;;;13.45;10.15;;;10.00;88.50;;;;;;4904263;29;20032;-89
2022/09/20 03:54:18;;;;;;;15.48;9.50;;;10.00;88.50;;;;;;4894230;29;20039;-89
2022/09/20 03:57:05;;;;;;;14.80;10.35;;;10.00;88.50;;;;;;4900767;29;20050;-89
2022/09/20 03:59:45;;;;;;;15.68;10.25;;;9.90;88.50;;;;;;4906940;29;20209;-89
2022/09/20 04:02:38;;;;;;;14.68;9.93;;;9.90;88.60;;;;;;4902275;29;20036;-89
2022/09/20 04:05:39;;;;;;;17.25;10.65;;;9.90;88.50;;;;;;4892885;29;20045;-89
2022/09/20 04:08:42;;;;;;;18.30;10.02;;;9.80;88.70;;;;;;4882350;29;20055;-89
2022/09/20 04:11:29;;;;;;;13.02;9.30;;;9.80;88.70;;;;;;4907802;29;20039;-89
2022/09/20 04:14:33;;;;;;;12.45;9.50;;;9.70;88.80;;;;;;4905937;29;20104;-89
2022/09/20 04:17:17;;;;;;;13.88;9.68;;;9.70;88.80;;;;;;4913357;29;20040;-89
2022/09/20 04:19:56;;;;;;;13.40;9.02;;;9.60;88.90;;;;;;4905274;29;20103;-90
2022/09/20 04:22:33;;;;;;;13.00;8.73;;;9.60;88.90;;;;;;4932010;29;20383;-89
2022/09/20 04:25:16;;;;;;;16.83;9.93;;;9.60;88.90;;;;;;4900071;29;20345;-90
2022/09/20 04:27:54;;;;;;;17.08;9.18;;;9.50;88.90;;;;;;4907274;29;20036;-89
2022/09/20 04:30:36;;;;;;;13.68;8.52;;;9.50;89.00;;;;;;4911644;29;24539;-89
2022/09/20 04:33:35;;;;;;;12.57;8.55;;;9.40;89.10;;;;;;4914095;29;20498;-89
2022/09/20 04:39:13;;;;;;;13.65;9.13;;;9.40;89.10;;;;;;4840831;29;20351;-89
2022/09/20 04:41:57;;;;;;;14.93;9.07;;;9.40;89.20;;;;;;4897156;29;20079;-89
2022/09/20 04:44:51;;;;;;;14.60;9.32;;;9.30;89.20;;;;;;4906012;29;20048;-89
2022/09/20 04:47:35;;;;;;;14.30;9.02;;;9.30;89.30;;;;;;4914535;29;20040;-90
2022/09/20 04:50:53;;;;;;;16.20;9.17;;;9.30;89.30;;;;;;4901978;29;20067;-88
2022/09/20 04:53:33;;;;;;;11.55;9.43;;;9.20;89.30;;;;;;4873033;29;20041;-89
2022/09/20 04:56:18;;;;;;;13.15;8.68;;;9.20;89.40;;;;;;4906132;29;20103;-89
2022/09/20 04:59:03;;;;;;;15.05;9.18;;;9.10;89.40;;;;;;4929389;29;20477;-89
2022/09/20 05:02:06;;;;;;;14.07;9.10;;;9.10;89.50;;;;;;4910806;29;20052;-89
2022/09/20 05:05:13;;;;;;;14.15;9.55;;;9.10;89.60;;;;;;4915612;29;20040;-89
2022/09/20 05:08:06;;;;;;;16.48;10.15;;;9.10;89.60;;;;;;4899951;29;20040;-89
2022/09/20 05:10:52;;;;;;;16.73;10.88;;;9.10;89.60;;;;;;4912103;29;20201;-89
2022/09/20 05:14:03;;;;;;;17.95;10.50;;;9.10;89.70;;;;;;4914701;29;20052;-90
2022/09/20 05:17:00;;;;;;;19.17;11.05;;;9.10;89.80;;;;;;4914882;29;20044;-89
2022/09/20 05:20:04;;;;;;;16.13;9.80;;;9.00;89.80;;;;;;4902224;29;20032;-90
2022/09/20 05:22:46;;;;;;;14.15;9.55;;;9.00;89.80;;;;;;4915853;29;20042;-89
2022/09/20 05:25:50;;;;;;;17.75;9.75;;;9.00;89.90;;;;;;4917886;28;20035;-89
2022/09/20 05:28:37;;;;;;;15.13;9.90;;;9.00;89.90;;;;;;4930651;29;20055;-89
2022/09/20 05:31:44;;;;;;;17.10;10.13;;;9.00;90.00;;;;;;4930003;29;20036;-89
2022/09/20 05:34:42;;;;;;;15.73;10.45;;;9.10;90.00;;;;;;4921167;28;20040;-89
2022/09/20 05:37:58;;;;;;;13.38;10.00;;;9.00;89.90;;;;;;4892024;29;20044;-89
2022/09/20 05:40:30;;;;;;;16.92;10.30;;;8.90;90.00;;;;;;4862355;29;20113;-89
2022/09/20 05:43:05;;;;;;;13.65;10.55;;;9.00;90.00;;;;;;4907035;29;20036;-89
2022/09/20 05:45:49;;;;;;;;;;;9.00;90.00;;;;;;4927522;29;20052;-88
2022/09/20 05:48:47;;;;;;;17.40;11.52;;;9.00;90.10;;;;;;4918264;29;19937;-89
2022/09/20 05:51:31;;;;;;;16.90;11.90;;;9.10;90.10;;;;;;4931611;29;20035;-89
2022/09/20 05:54:17;;;;;;;17.48;11.20;;;9.10;90.10;;;;;;4889938;29;20067;-89
2022/09/20 05:57:07;;;;;;;15.85;11.27;;;9.10;90.10;;;;;;4889196;29;20044;-89
2022/09/20 06:00:27;;;;;;;19.35;11.82;;;9.10;90.20;;;;;;4926174;29;20056;-89
2022/09/20 06:03:08;;;;;;;15.68;11.55;;;9.10;90.10;;;;;;4842780;29;20441;-89
2022/09/20 06:05:36;;;;;;;16.75;11.68;;;9.20;90.20;;;;;;4914502;29;20210;-89
2022/09/20 06:08:25;;;;;;;16.27;12.38;;;9.20;90.20;;;;;;4924158;29;20033;-89
2022/09/20 06:11:28;;;;;;;16.95;11.70;;;9.30;90.30;;;;;;4930709;29;20484;-90
2022/09/20 06:14:18;;;;;;;20.13;12.70;;;9.40;90.30;;;;;;4916474;29;20400;-89
2022/09/20 06:17:12;;;;;;;18.88;13.13;;;9.40;90.20;;;;;;4920794;29;20480;-90
2022/09/20 06:20:05;;;;;;;20.27;13.02;;;9.60;90.20;;;;;;4903876;29;20400;-89
2022/09/20 06:22:41;;;;;;;20.67;12.98;;;9.70;90.20;;;;;;4908855;29;20064;-90
2022/09/20 06:25:07;;;;;;;21.02;13.65;;;9.90;90.10;;;;;;4904173;29;20036;-89
2022/09/20 06:27:55;;;;;;;19.75;13.23;;;10.10;90.10;;;;;;4911222;29;20091;-89
2022/09/20 06:30:48;;;;;;;25.60;18.00;;;10.20;90.00;;;;;;4888308;29;20115;-89
2022/09/20 06:33:24;;;;;;;24.60;15.27;;;10.50;90.00;;;;;;4922626;29;20066;-89
2022/09/20 06:42:13;;;;;;;22.30;15.60;;;11.10;89.70;;;;;;4907236;29;20047;-89
2022/09/20 06:44:40;;;;;;;19.55;13.77;;;11.60;88.40;;;;;;4903426;29;20040;-89
2022/09/20 06:47:10;;;;;;;19.17;14.82;;;11.90;87.20;;;;;;4918996;29;20039;-89
2022/09/20 06:49:36;;;;;;;20.85;13.95;;;12.00;86.90;;;;;;4912093;29;20118;-89
2022/09/20 06:52:06;;;;;;;20.65;14.98;;;11.90;86.80;;;;;;4906492;29;20492;-89
2022/09/20 06:54:32;;;;;;;23.73;16.70;;;11.80;86.90;;;;;;4911862;29;20036;-89
2022/09/20 06:57:02;;;;;;;23.85;17.98;;;11.80;87.30;;;;;;4905832;29;20124;-89
2022/09/20 06:59:28;;;;;;;25.60;18.42;;;11.80;87.60;;;;;;4920919;29;20059;-89
2022/09/20 07:01:54;;;;;;;22.33;17.77;;;11.80;87.80;;;;;;4904003;29;20095;-88
2022/09/20 07:04:20;;;;;;;21.27;17.98;;;11.90;88.20;;;;;;4920667;29;20582;-89
2022/09/20 07:06:47;;;;;;;20.85;16.27;;;12.00;88.30;;;;;;4919980;29;20369;-89
2022/09/20 07:09:12;;;;;;;23.10;16.58;;;12.10;88.40;;;;;;4921808;29;20081;-89
2022/09/20 07:11:38;;;;;;;20.48;16.10;;;12.20;88.30;;;;;;4907314;29;20385;-89
2022/09/20 07:14:06;;;;;;;19.58;15.50;;;12.30;88.00;;;;;;4921280;29;20048;-89
2022/09/20 07:16:32;;;;;;;21.05;15.68;;;12.30;87.80;;;;;;4922393;29;20496;-89
2022/09/20 07:18:58;;;;;;;17.77;14.32;;;12.40;87.60;;;;;;4925377;29;20048;-89
2022/09/20 07:21:24;;;;;;;18.38;14.10;;;12.50;87.50;;;;;;4924816;29;20036;-89
2022/09/20 07:23:50;;;;;;;18.60;13.88;;;12.60;87.40;;;;;;4911319;29;20398;-90
2022/09/20 07:26:20;;;;;;;20.38;14.07;;;12.60;87.00;;;;;;4910839;29;20032;-90
2022/09/20 07:28:46;;;;;;;17.73;13.35;;;12.80;87.00;;;;;;4910914;29;20566;-89
2022/09/20 07:31:12;;;;;;;17.75;13.00;;;12.90;86.50;;;;;;4908482;29;20064;-90
2022/09/20 07:33:37;;;;;;;15.88;12.10;;;13.00;86.00;;;;;;4910229;29;20075;-88
2022/09/20 07:36:03;;;;;;;18.40;12.02;;;13.20;85.00;;;;;;4911224;29;20040;-89
2022/09/20 07:38:29;;;;;;;19.40;12.38;;;13.30;83.70;;;;;;4925786;29;20043;-89
2022/09/20 07:41:01;;;;;;;17.33;11.32;;;13.50;83.30;;;;;;4925859;29;20066;-89
2022/09/20 07:43:27;;;;;;;17.52;10.55;;;13.70;83.10;;;;;;4922898;29;20434;-89
2022/09/20 07:45:54;;;;;;;12.38;9.20;;;13.90;82.00;;;;;;4915995;29;20048;-90
2022/09/20 07:48:24;;;;;;;14.50;7.97;;;14.10;81.60;;;;;;4909319;29;20435;-89
2022/09/20 07:50:54;;;;;;;13.90;6.30;;;14.20;79.20;;;;;;4924111;29;20064;-90
2022/09/20 07:53:21;;;;;;;12.93;6.53;;;14.40;78.60;;;;;;4924253;29;20058;-90
2022/09/20 07:56:00;;;;;;;14.48;6.57;;;14.50;78.20;;;;;;4905103;28;20049;-90
2022/09/20 07:58:28;;;;;;;14.27;6.03;;;14.70;77.80;;;;;;4924190;29;20040;-90
2022/09/20 08:00:58;;;;;;;12.77;5.53;;;14.80;77.10;;;;;;4905902;29;20097;-89
2022/09/20 08:03:25;;;;;;;12.77;6.20;;;15.00;76.60;;;;;;4924170;28;20048;-89
2022/09/20 08:05:51;;;;;;;10.27;5.00;;;15.20;76.10;;;;;;4910890;29;20040;-89
2022/09/20 08:08:17;;;;;;;11.38;5.05;;;15.40;75.00;;;;;;4911326;29;20138;-89
2022/09/20 08:10:44;;;;;;;9.15;4.93;;;15.50;73.50;;;;;;4923554;29;20043;-90
2022/09/20 08:13:14;;;;;;;10.00;5.22;;;15.70;73.50;;;;;;4908844;29;20393;-90
2022/09/20 08:15:40;;;;;;;10.43;4.75;;;16.00;73.60;;;;;;4907828;29;20100;-90
2022/09/20 08:18:08;;;;;;;15.18;5.30;;;16.10;72.70;;;;;;4926862;29;20067;-90
2022/09/20 08:20:38;;;;;;;10.63;4.53;;;16.30;71.70;;;;;;4924812;29;20032;-89
2022/09/20 08:23:05;;;;;;;10.50;4.72;;;16.40;70.90;;;;;;4925931;29;20048;-89
2022/09/20 08:25:31;;;;;;;9.73;4.50;;;16.30;70.50;;;;;;4908088;29;20048;-90
2022/09/20 08:27:56;;;;;;;12.65;4.75;;;16.50;69.70;;;;;;4922089;29;20785;-90
2022/09/20 08:30:22;;;;;;;10.50;4.25;;;16.60;69.50;;;;;;4924243;29;20052;-90
2022/09/20 08:32:48;;;;;;;14.07;6.07;;;16.60;69.80;;;;;;4909983;29;20059;-89
2022/09/20 08:35:14;;;;;;;12.93;7.28;;;16.60;70.60;;;;;;4920755;28;20036;-91
2022/09/20 08:37:42;;;;;;;11.35;6.22;;;16.70;70.50;;;;;;4909813;29;20060;-89
2022/09/20 08:40:14;;;;;;;12.07;5.13;;;16.50;71.00;;;;;;4911610;29;20083;-88
2022/09/20 08:42:43;;;;;;;10.23;3.95;;;16.20;71.00;;;;;;4915616;29;20037;-88
2022/09/20 08:45:20;;;;;;;9.60;3.88;;;15.80;70.70;;;;;;4913254;29;20062;-90
2022/09/20 08:47:52;;;;;;;10.45;4.13;;;15.60;71.40;;;;;;4918356;29;20044;-89
2022/09/20 08:50:18;;;;;;;10.48;5.10;;;15.40;72.00;;;;;;4937831;29;20060;-89
2022/09/20 08:52:51;;;;;;;11.70;4.43;;;15.30;71.80;;;;;;4924658;29;20483;-90
2022/09/20 08:55:20;;;;;;;7.97;3.88;;;15.40;73.30;;;;;;4918576;29;20059;-88
2022/09/20 08:57:55;;;;;;;7.25;3.45;;;15.80;73.40;;;;;;4916299;29;20095;-88
2022/09/20 09:00:22;;;;;;;;;;;16.20;71.90;;;;;;4921513;29;21700;-89
2022/09/20 09:02:53;;;;;;;9.88;4.28;;;16.40;69.80;;;;;;4905337;29;20383;-90
2022/09/20 09:05:32;;;;;;;8.40;3.75;;;16.60;69.40;;;;;;4918576;29;20036;-91
2022/09/20 09:08:03;;;;;;;8.65;4.03;;;16.90;69.00;;;;;;4907518;29;20136;-89
2022/09/20 09:10:40;;;;;;;9.23;3.80;;;17.20;66.90;;;;;;4916743;29;20043;-90
2022/09/20 09:13:06;;;;;;;7.43;3.53;;;17.50;66.70;;;;;;4907907;29;20055;-90
2022/09/20 09:15:37;;;;;;;8.63;3.30;;;17.60;66.70;;;;;;4906446;29;20036;-90
2022/09/20 09:18:08;;;;;;;6.85;3.72;;;17.90;65.60;;;;;;4904004;29;20040;-89
2022/09/20 09:20:45;;;;;;;6.80;2.53;;;18.20;64.60;;;;;;4905345;29;20040;-91
2022/09/20 09:23:24;;;;;;;7.78;3.22;;;18.60;63.00;;;;;;4924124;29;20036;-90
2022/09/20 09:25:51;;;;;;;7.20;3.10;;;19.00;59.90;;;;;;4924277;29;20036;-90
2022/09/20 09:28:24;;;;;;;8.07;3.35;;;18.90;60.80;;;;;;4908925;29;20635;-89
2022/09/20 09:30:50;;;;;;;8.95;2.50;;;19.40;59.60;;;;;;4921951;29;20474;-89
2022/09/20 09:33:30;;;;;;;8.23;2.20;;;19.60;57.50;;;;;;4905236;29;20037;-90
2022/09/20 09:36:21;;;;;;;6.22;2.30;;;19.60;56.80;;;;;;4922409;29;20068;-89
2022/09/20 09:38:47;;;;;;;7.57;2.88;;;19.40;56.60;;;;;;4912590;29;20063;-89
2022/09/20 09:41:32;;;;;;;6.63;2.20;;;19.30;58.40;;;;;;4893510;29;20032;-89
2022/09/20 09:44:06;;;;;;;9.13;2.53;;;19.40;57.80;;;;;;4899680;29;20060;-89
2022/09/20 09:46:39;;;;;;;6.15;2.13;;;18.80;58.10;;;;;;4893855;29;20894;-89
2022/09/20 09:49:09;;;;;;;7.78;2.30;;;19.10;58.50;;;;;;4888089;28;20424;-89
2022/09/20 09:51:35;;;;;;;10.35;2.67;;;19.10;58.70;;;;;;4911088;28;20051;-90
2022/09/20 09:54:02;;;;;;;8.73;2.50;;;19.10;58.70;;;;;;4908319;29;20040;-88
2022/09/20 09:57:00;;;;;;;5.68;2.10;;;18.70;58.60;;;;;;4917767;29;20040;-88
2022/09/20 09:59:56;;;;;;;4.95;2.13;;;18.40;59.10;;;;;;4915603;29;20059;-88
2022/09/20 10:03:07;;;;;;;7.90;2.10;;;18.30;60.30;;;;;;4924945;29;20052;-89
2022/09/20 10:05:53;;;;;;;8.13;2.22;;;17.80;61.70;;;;;;4917245;29;20044;-89
2022/09/20 10:08:59;;;;;;;9.85;2.85;;;17.50;63.50;;;;;;4908177;29;20052;-89
2022/09/20 10:11:35;;;;;;;6.07;2.38;;;17.30;64.30;;;;;;4875706;29;20055;-88
2022/09/20 10:14:30;;;;;;;6.68;2.55;;;17.40;64.10;;;;;;4893758;29;20583;-89
2022/09/20 10:17:28;;;;;;;8.80;2.90;;;17.50;64.50;;;;;;4907826;29;20063;-88
2022/09/20 10:20:22;;;;;;;8.45;2.30;;;17.60;64.00;;;;;;4879182;29;20048;-89
2022/09/20 10:23:07;;;;;;;7.03;2.00;;;17.40;63.90;;;;;;4919723;29;20040;-89
2022/09/20 10:25:55;;;;;;;8.30;2.47;;;17.60;63.60;;;;;;4920207;29;20073;-89
2022/09/20 10:28:49;;;;;;;8.13;2.20;;;17.80;62.90;;;;;;4921560;29;20399;-90
2022/09/20 10:31:51;;;;;;;9.48;2.30;;;17.70;63.20;;;;;;4913707;29;20107;-89
2022/09/20 10:34:36;;;;;;;10.30;2.97;;;17.60;63.80;;;;;;4914087;29;20040;-90
2022/09/20 10:37:01;;;;;;;8.55;2.13;;;17.70;65.00;;;;;;4921374;29;20031;-91
2022/09/20 10:39:39;;;;;;;6.63;2.03;;;17.80;64.70;;;;;;4894936;29;20377;-89
2022/09/20 10:45:17;;;;;;;8.95;2.15;;;17.60;65.30;;;;;;4906613;28;20338;-89
2022/09/20 10:47:54;;;;;;;8.57;2.17;;;17.40;65.90;;;;;;4904679;29;20039;-89
2022/09/20 10:50:45;;;;;;;6.40;2.10;;;17.30;66.30;;;;;;4918331;28;20158;-90
2022/09/20 10:53:54;;;;;;;8.02;2.20;;;17.20;66.80;;;;;;4912401;29;20059;-89
2022/09/20 10:56:38;;;;;;;8.98;2.72;;;17.20;66.10;;;;;;4870150;29;20040;-89
2022/09/20 10:59:23;;;;;;;6.18;1.70;;;17.20;66.10;;;;;;4898928;29;20063;-88
2022/09/20 11:01:57;;;;;;;;;;;17.20;65.80;;;;;;4906348;29;20151;-89
2022/09/20 11:04:23;;;;;;;5.57;1.80;;;17.20;65.40;;;;;;4905708;28;19981;-90
2022/09/20 11:07:09;;;;;;;6.85;1.55;;;17.30;65.80;;;;;;4928875;29;20044;-90
2022/09/20 11:09:43;;;;;;;4.53;1.40;;;17.60;65.10;;;;;;4924633;29;20442;-89
2022/09/20 11:12:28;;;;;;;;;;;17.70;64.80;;;;;;4908347;29;20055;-90
2022/09/20 11:15:32;;;;;;;10.40;2.47;;;17.60;64.40;;;;;;4921527;28;20001;-89
2022/09/20 11:18:11;;;;;;;7.95;2.08;;;17.50;64.50;;;;;;4924122;29;20468;-88
2022/09/20 11:20:45;;;;;;;7.15;2.10;;;17.50;65.50;;;;;;4904161;29;20355;-89
2022/09/20 11:23:21;;;;;;;9.65;2.28;;;17.60;65.80;;;;;;4908676;29;20036;-89
2022/09/20 11:25:56;;;;;;;6.20;2.10;;;17.60;64.90;;;;;;4921156;29;20032;-89
2022/09/20 11:28:36;;;;;;;6.65;1.75;;;17.50;65.10;;;;;;4904051;29;20043;-89
2022/09/20 11:31:18;;;;;;;8.30;1.95;;;17.50;66.00;;;;;;4917528;29;20091;-88
2022/09/20 11:33:57;;;;;;;6.60;1.80;;;17.60;65.80;;;;;;4914596;29;20032;-88
2022/09/20 11:36:31;;;;;;;7.60;2.05;;;17.60;64.30;;;;;;4904105;29;20050;-89
2022/09/20 11:39:04;;;;;;;4.78;1.90;;;18.00;65.20;;;;;;4906947;28;20033;-89
2022/09/20 11:41:30;;;;;;;5.65;1.85;;;17.80;64.80;;;;;;4917872;29;20067;-89
2022/09/20 11:44:05;;;;;;;6.80;1.75;;;17.60;64.20;;;;;;4922976;28;20043;-88
2022/09/20 11:46:42;;;;;;;5.60;1.63;;;17.80;63.60;;;;;;4923416;29;20051;-89
2022/09/20 11:49:15;;;;;;;5.53;1.77;;;17.90;64.40;;;;;;4915961;28;20405;-89
2022/09/20 11:52:04;;;;;;;4.78;1.50;;;18.00;63.50;;;;;;4907452;29;20036;-89
2022/09/20 11:54:40;;;;;;;3.78;1.20;;;17.60;63.10;;;;;;4904576;29;20127;-90
2022/09/20 11:57:07;;;;;;;5.82;1.65;;;17.70;64.80;;;;;;4916217;29;20028;-90
2022/09/20 11:59:38;;;;;;;5.63;1.20;;;18.20;64.40;;;;;;4904910;29;20073;-89
2022/09/20 12:02:17;;;;;;;2.08;1.20;;;18.20;61.70;;;;;;4908843;29;20039;-89
2022/09/20 12:04:46;;;;;;;4.13;1.15;;;17.90;61.30;;;;;;4918298;29;20492;-90
2022/09/20 12:07:19;;;;;;;7.25;1.30;;;17.80;61.20;;;;;;4923527;29;20043;-89
2022/09/20 12:09:57;;;;;;;5.07;1.40;;;18.00;61.10;;;;;;4909754;29;20111;-88
2022/09/20 12:12:47;;;;;;;4.40;1.05;;;18.30;59.80;;;;;;4912095;29;20054;-89
2022/09/20 12:15:39;;;;;;;5.07;1.08;;;18.40;61.80;;;;;;4910116;29;20048;-90
2022/09/20 12:18:14;;;;;;;4.18;1.23;;;18.90;59.90;;;;;;4900674;29;20103;-89
2022/09/20 12:20:41;;;;;;;5.20;1.40;;;18.80;59.00;;;;;;4923029;29;20051;-89
2022/09/20 12:23:39;;;;;;;7.47;1.88;;;18.30;60.40;;;;;;4910342;29;20048;-90
2022/09/20 12:26:31;;;;;;;5.10;1.52;;;17.90;62.20;;;;;;4908767;29;20399;-89
2022/09/20 12:29:21;;;;;;;4.50;1.20;;;17.60;66.30;;;;;;4922527;29;20040;-89
2022/09/20 12:31:48;;;;;;;4.20;1.52;;;17.10;68.50;;;;;;4911267;29;20042;-89
2022/09/20 12:34:14;;;;;;;5.47;1.65;;;16.70;69.60;;;;;;4914230;29;20032;-89
2022/09/20 12:36:55;;;;;;;3.95;1.40;;;16.40;70.90;;;;;;4907776;29;20168;-89
2022/09/20 12:39:32;;;;;;;4.57;1.65;;;16.00;71.40;;;;;;4918740;28;20036;-89
2022/09/20 12:42:10;;;;;;;4.93;1.27;;;15.90;72.60;;;;;;4919596;29;20037;-89
2022/09/20 12:44:38;;;;;;;2.95;1.50;;;15.60;73.80;;;;;;4903260;29;20526;-89
2022/09/20 12:47:15;;;;;;;5.88;1.42;;;15.50;74.90;;;;;;4907892;29;20493;-89
2022/09/20 12:55:37;;;;;;;4.43;1.75;;;15.40;74.90;;;;;;4911452;28;20137;-89
2022/09/20 12:58:05;;;;;;;;;;;15.30;75.40;;;;;;4925650;29;20040;-90
2022/09/20 13:00:39;;;;;;;5.90;1.80;;;15.30;74.80;;;;;;4909108;29;19919;-90
2022/09/20 13:03:14;;;;;;;;;;;15.10;74.60;;;;;;4920924;29;20062;-89
2022/09/20 13:05:44;;;;;;;6.63;1.80;;;15.10;74.90;;;;;;4909000;28;20017;-90
2022/09/20 13:08:18;;;;;;;5.30;1.67;;;15.10;75.40;;;;;;4908242;29;20039;-89
2022/09/20 13:11:00;;;;;;;7.40;1.83;;;15.10;75.20;;;;;;4917575;28;20032;-90
2022/09/20 13:13:31;;;;;;;5.10;1.58;;;15.20;75.10;;;;;;4928920;28;20161;-89
2022/09/20 13:16:00;;;;;;;5.50;1.90;;;15.40;75.50;;;;;;4906515;29;20556;-89
2022/09/20 13:18:27;;;;;;;5.22;1.60;;;15.50;75.20;;;;;;4908964;28;20131;-90
2022/09/20 13:20:58;;;;;;;7.00;1.88;;;15.60;74.60;;;;;;4911110;29;20064;-89
2022/09/20 13:23:30;;;;;;;5.05;2.00;;;15.80;73.70;;;;;;4907100;29;20060;-88
2022/09/20 13:25:57;;;;;;;6.38;1.90;;;15.90;73.00;;;;;;4924838;29;20519;-89
2022/09/20 13:28:32;;;;;;;4.68;1.85;;;16.00;73.80;;;;;;4913871;28;20555;-88
2022/09/20 13:31:19;;;;;;;7.25;2.20;;;16.10;73.70;;;;;;4923231;29;20049;-89
2022/09/20 13:33:51;;;;;;;3.75;2.05;;;16.10;73.30;;;;;;4909566;29;20100;-93
2022/09/20 13:36:28;;;;;;;6.03;1.98;;;16.20;73.80;;;;;;4897455;29;20530;-89
2022/09/20 13:38:57;;;;;;;6.78;1.80;;;16.20;73.30;;;;;;4927184;28;20138;-90
2022/09/20 13:41:26;;;;;;;7.05;2.08;;;16.30;73.30;;;;;;4894789;29;20521;-87
2022/09/20 13:43:52;;;;;;;5.53;1.90;;;16.30;72.90;;;;;;4909499;29;20032;-87
2022/09/20 13:46:44;;;;;;;7.40;2.70;;;16.50;71.80;;;;;;4924169;29;20115;-87
2022/09/20 13:49:16;;;;;;;9.18;2.30;;;16.60;71.40;;;;;;4895895;29;20108;-89
2022/09/20 13:51:42;;;;;;;5.88;2.28;;;16.70;70.60;;;;;;4914152;29;20148;-87
2022/09/20 13:54:32;;;;;;;8.88;2.65;;;16.80;70.60;;;;;;4923847;28;20044;-88
2022/09/20 13:57:17;;;;;;;5.78;2.42;;;17.00;70.50;;;;;;4921714;29;20072;-87
2022/09/20 13:59:45;;;;;;;5.32;2.33;;;17.00;69.40;;;;;;4921991;28;20060;-87
2022/09/20 14:02:32;;;;;;;5.85;2.35;;;17.10;69.90;;;;;;4924126;29;20036;-87
2022/09/20 14:05:00;;;;;;;7.03;2.35;;;17.30;70.50;;;;;;4922722;28;20504;-87
2022/09/20 14:07:28;;;;;;;4.32;2.20;;;17.30;68.90;;;;;;4924016;29;20029;-87
2022/09/20 14:09:55;;;;;;;5.45;1.90;;;17.50;67.80;;;;;;4921493;28;20044;-88